sensor_id;sensor_type;location;lat;lon;timestamp;P1;durP1;ratioP1;P2;durP2;ratioP2
43552;SDS011;29153;42.696;23.218;2022-07-29T00:01:53;19.42;;;11.35;;
43552;SDS011;29153;42.696;23.218;2022-07-29T00:04:21;16.30;;;11.73;;
43552;SDS011;29153;42.696;23.218;2022-07-29T00:06:48;14.00;;;12.03;;
43552;SDS011;29153;42.696;23.218;2022-07-29T00:09:16;14.55;;;11.03;;
43552;SDS011;29153;42.696;23.218;2022-07-29T00:11:43;16.90;;;11.48;;
43552;SDS011;29153;42.696;23.218;2022-07-29T00:14:11;14.20;;;12.50;;
43552;SDS011;29153;42.696;23.218;2022-07-29T00:16:39;12.63;;;10.98;;
43552;SDS011;29153;42.696;23.218;2022-07-29T00:19:06;23.22;;;12.30;;
43552;SDS011;29153;42.696;23.218;2022-07-29T00:21:34;14.28;;;12.13;;
43552;SDS011;29153;42.696;23.218;2022-07-29T00:24:02;23.18;;;12.80;;
43552;SDS011;29153;42.696;23.218;2022-07-29T00:26:29;14.78;;;12.10;;
43552;SDS011;29153;42.696;23.218;2022-07-29T00:29:01;14.98;;;11.45;;
43552;SDS011;29153;42.696;23.218;2022-07-29T00:31:30;15.18;;;12.15;;
43552;SDS011;29153;42.696;23.218;2022-07-29T00:33:57;12.50;;;11.20;;
43552;SDS011;29153;42.696;23.218;2022-07-29T00:36:25;15.35;;;11.78;;
43552;SDS011;29153;42.696;23.218;2022-07-29T00:38:53;19.70;;;11.95;;
43552;SDS011;29153;42.696;23.218;2022-07-29T00:41:20;14.63;;;11.48;;
43552;SDS011;29153;42.696;23.218;2022-07-29T00:43:48;17.20;;;11.08;;
43552;SDS011;29153;42.696;23.218;2022-07-29T00:46:16;20.30;;;12.88;;
43552;SDS011;29153;42.696;23.218;2022-07-29T00:48:43;16.17;;;13.13;;
43552;SDS011;29153;42.696;23.218;2022-07-29T00:51:11;19.05;;;11.93;;
43552;SDS011;29153;42.696;23.218;2022-07-29T00:53:40;15.83;;;11.35;;
43552;SDS011;29153;42.696;23.218;2022-07-29T00:56:09;15.63;;;12.03;;
43552;SDS011;29153;42.696;23.218;2022-07-29T00:58:36;17.10;;;12.20;;
43552;SDS011;29153;42.696;23.218;2022-07-29T01:01:05;17.35;;;12.80;;
43552;SDS011;29153;42.696;23.218;2022-07-29T01:03:32;15.43;;;12.50;;
43552;SDS011;29153;42.696;23.218;2022-07-29T01:06:00;19.30;;;11.97;;
43552;SDS011;29153;42.696;23.218;2022-07-29T01:08:28;15.18;;;11.15;;
43552;SDS011;29153;42.696;23.218;2022-07-29T01:10:57;18.62;;;12.07;;
43552;SDS011;29153;42.696;23.218;2022-07-29T01:13:25;15.20;;;11.43;;
43552;SDS011;29153;42.696;23.218;2022-07-29T01:16:01;15.72;;;12.40;;
43552;SDS011;29153;42.696;23.218;2022-07-29T01:18:39;16.60;;;12.47;;
43552;SDS011;29153;42.696;23.218;2022-07-29T01:24:15;19.37;;;11.75;;
43552;SDS011;29153;42.696;23.218;2022-07-29T01:26:50;19.23;;;11.15;;
43552;SDS011;29153;42.696;23.218;2022-07-29T01:31:54;15.43;;;11.97;;
43552;SDS011;29153;42.696;23.218;2022-07-29T01:37:38;22.30;;;11.95;;
43552;SDS011;29153;42.696;23.218;2022-07-29T01:40:11;18.65;;;11.35;;
43552;SDS011;29153;42.696;23.218;2022-07-29T01:42:44;19.37;;;11.28;;
43552;SDS011;29153;42.696;23.218;2022-07-29T01:48:05;14.33;;;10.88;;
43552;SDS011;29153;42.696;23.218;2022-07-29T01:50:43;23.92;;;12.07;;
43552;SDS011;29153;42.696;23.218;2022-07-29T01:53:14;20.92;;;11.00;;
43552;SDS011;29153;42.696;23.218;2022-07-29T01:55:50;15.83;;;11.48;;
43552;SDS011;29153;42.696;23.218;2022-07-29T01:58:20;19.37;;;12.95;;
43552;SDS011;29153;42.696;23.218;2022-07-29T02:00:48;25.57;;;13.60;;
43552;SDS011;29153;42.696;23.218;2022-07-29T02:03:17;15.90;;;12.78;;
43552;SDS011;29153;42.696;23.218;2022-07-29T02:05:46;25.23;;;13.83;;
43552;SDS011;29153;42.696;23.218;2022-07-29T02:08:16;18.60;;;13.55;;
43552;SDS011;29153;42.696;23.218;2022-07-29T02:10:47;17.00;;;14.38;;
43552;SDS011;29153;42.696;23.218;2022-07-29T02:13:16;18.17;;;13.93;;
43552;SDS011;29153;42.696;23.218;2022-07-29T02:15:46;22.52;;;13.50;;
43552;SDS011;29153;42.696;23.218;2022-07-29T02:18:16;19.75;;;14.07;;
43552;SDS011;29153;42.696;23.218;2022-07-29T02:20:47;21.95;;;14.63;;
43552;SDS011;29153;42.696;23.218;2022-07-29T02:23:17;20.12;;;15.48;;
43552;SDS011;29153;42.696;23.218;2022-07-29T02:25:48;17.60;;;13.32;;
43552;SDS011;29153;42.696;23.218;2022-07-29T02:28:17;17.73;;;13.75;;
43552;SDS011;29153;42.696;23.218;2022-07-29T02:30:45;19.85;;;13.38;;
43552;SDS011;29153;42.696;23.218;2022-07-29T02:33:16;22.70;;;14.00;;
43552;SDS011;29153;42.696;23.218;2022-07-29T02:35:45;18.12;;;13.85;;
43552;SDS011;29153;42.696;23.218;2022-07-29T02:38:17;22.00;;;14.38;;
43552;SDS011;29153;42.696;23.218;2022-07-29T02:41:06;17.80;;;13.72;;
43552;SDS011;29153;42.696;23.218;2022-07-29T02:43:40;22.52;;;14.55;;
43552;SDS011;29153;42.696;23.218;2022-07-29T02:46:13;26.68;;;15.38;;
43552;SDS011;29153;42.696;23.218;2022-07-29T02:48:43;21.85;;;13.60;;
43552;SDS011;29153;42.696;23.218;2022-07-29T02:51:19;19.82;;;14.28;;
43552;SDS011;29153;42.696;23.218;2022-07-29T02:53:53;18.62;;;14.13;;
43552;SDS011;29153;42.696;23.218;2022-07-29T02:56:30;22.48;;;13.83;;
43552;SDS011;29153;42.696;23.218;2022-07-29T02:58:55;18.35;;;13.13;;
43552;SDS011;29153;42.696;23.218;2022-07-29T03:01:32;19.87;;;13.78;;
43552;SDS011;29153;42.696;23.218;2022-07-29T03:11:50;17.60;;;13.05;;
43552;SDS011;29153;42.696;23.218;2022-07-29T03:14:19;18.10;;;13.15;;
43552;SDS011;29153;42.696;23.218;2022-07-29T03:16:48;15.03;;;12.85;;
43552;SDS011;29153;42.696;23.218;2022-07-29T03:19:18;17.02;;;12.95;;
43552;SDS011;29153;42.696;23.218;2022-07-29T03:21:47;20.50;;;12.30;;
43552;SDS011;29153;42.696;23.218;2022-07-29T03:24:29;18.37;;;13.70;;
43552;SDS011;29153;42.696;23.218;2022-07-29T03:26:55;16.25;;;13.00;;
43552;SDS011;29153;42.696;23.218;2022-07-29T03:29:23;20.37;;;12.93;;
43552;SDS011;29153;42.696;23.218;2022-07-29T03:31:52;22.22;;;13.32;;
43552;SDS011;29153;42.696;23.218;2022-07-29T03:34:20;20.23;;;13.45;;
43552;SDS011;29153;42.696;23.218;2022-07-29T03:37:00;20.10;;;12.58;;
43552;SDS011;29153;42.696;23.218;2022-07-29T03:39:36;14.45;;;12.33;;
43552;SDS011;29153;42.696;23.218;2022-07-29T03:42:05;15.23;;;12.00;;
43552;SDS011;29153;42.696;23.218;2022-07-29T03:44:35;16.02;;;12.65;;
43552;SDS011;29153;42.696;23.218;2022-07-29T03:47:09;20.45;;;12.25;;
43552;SDS011;29153;42.696;23.218;2022-07-29T03:55:40;16.60;;;12.70;;
43552;SDS011;29153;42.696;23.218;2022-07-29T03:58:11;19.15;;;14.98;;
43552;SDS011;29153;42.696;23.218;2022-07-29T04:00:42;22.63;;;17.67;;
43552;SDS011;29153;42.696;23.218;2022-07-29T04:03:19;20.08;;;16.07;;
43552;SDS011;29153;42.696;23.218;2022-07-29T04:05:42;20.95;;;15.35;;
43552;SDS011;29153;42.696;23.218;2022-07-29T04:08:09;24.55;;;18.30;;
43552;SDS011;29153;42.696;23.218;2022-07-29T04:10:40;31.42;;;20.27;;
43552;SDS011;29153;42.696;23.218;2022-07-29T04:13:10;20.80;;;17.80;;
43552;SDS011;29153;42.696;23.218;2022-07-29T04:15:41;24.55;;;16.62;;
43552;SDS011;29153;42.696;23.218;2022-07-29T04:18:09;21.25;;;13.68;;
43552;SDS011;29153;42.696;23.218;2022-07-29T04:20:52;17.25;;;13.83;;
43552;SDS011;29153;42.696;23.218;2022-07-29T04:23:30;24.45;;;14.85;;
43552;SDS011;29153;42.696;23.218;2022-07-29T04:26:11;22.62;;;14.03;;
43552;SDS011;29153;42.696;23.218;2022-07-29T04:28:59;28.47;;;14.50;;
43552;SDS011;29153;42.696;23.218;2022-07-29T04:31:39;20.52;;;13.98;;
43552;SDS011;29153;42.696;23.218;2022-07-29T04:34:11;15.80;;;13.68;;
43552;SDS011;29153;42.696;23.218;2022-07-29T04:36:54;18.32;;;12.18;;
43552;SDS011;29153;42.696;23.218;2022-07-29T04:39:29;16.65;;;12.90;;
43552;SDS011;29153;42.696;23.218;2022-07-29T04:41:59;18.30;;;12.85;;
43552;SDS011;29153;42.696;23.218;2022-07-29T04:47:48;25.15;;;13.80;;
43552;SDS011;29153;42.696;23.218;2022-07-29T04:50:40;18.70;;;12.53;;
43552;SDS011;29153;42.696;23.218;2022-07-29T04:53:12;18.67;;;13.48;;
43552;SDS011;29153;42.696;23.218;2022-07-29T04:55:51;13.50;;;12.10;;
43552;SDS011;29153;42.696;23.218;2022-07-29T04:58:22;13.43;;;12.05;;
43552;SDS011;29153;42.696;23.218;2022-07-29T05:01:04;18.80;;;13.78;;
43552;SDS011;29153;42.696;23.218;2022-07-29T05:03:23;17.20;;;13.85;;
43552;SDS011;29153;42.696;23.218;2022-07-29T05:11:03;16.70;;;13.25;;
43552;SDS011;29153;42.696;23.218;2022-07-29T05:13:31;19.27;;;14.10;;
43552;SDS011;29153;42.696;23.218;2022-07-29T05:16:00;21.40;;;15.80;;
43552;SDS011;29153;42.696;23.218;2022-07-29T05:18:28;19.05;;;16.12;;
43552;SDS011;29153;42.696;23.218;2022-07-29T05:21:02;18.15;;;16.17;;
43552;SDS011;29153;42.696;23.218;2022-07-29T05:23:32;23.02;;;17.12;;
43552;SDS011;29153;42.696;23.218;2022-07-29T05:26:01;23.02;;;16.87;;
43552;SDS011;29153;42.696;23.218;2022-07-29T05:28:32;21.75;;;16.15;;
43552;SDS011;29153;42.696;23.218;2022-07-29T05:31:08;22.58;;;16.62;;
43552;SDS011;29153;42.696;23.218;2022-07-29T05:33:36;18.45;;;15.75;;
43552;SDS011;29153;42.696;23.218;2022-07-29T05:36:18;20.12;;;15.58;;
43552;SDS011;29153;42.696;23.218;2022-07-29T05:38:48;22.50;;;17.73;;
43552;SDS011;29153;42.696;23.218;2022-07-29T05:41:19;21.90;;;18.23;;
43552;SDS011;29153;42.696;23.218;2022-07-29T05:46:53;18.02;;;16.02;;
43552;SDS011;29153;42.696;23.218;2022-07-29T05:55:19;19.55;;;16.23;;
43552;SDS011;29153;42.696;23.218;2022-07-29T05:57:43;26.77;;;16.12;;
43552;SDS011;29153;42.696;23.218;2022-07-29T06:00:11;18.57;;;15.93;;
43552;SDS011;29153;42.696;23.218;2022-07-29T06:02:54;18.62;;;16.25;;
43552;SDS011;29153;42.696;23.218;2022-07-29T06:05:15;24.18;;;15.63;;
43552;SDS011;29153;42.696;23.218;2022-07-29T06:07:50;21.50;;;16.23;;
43552;SDS011;29153;42.696;23.218;2022-07-29T06:10:16;26.23;;;17.20;;
43552;SDS011;29153;42.696;23.218;2022-07-29T06:12:44;19.80;;;17.40;;
43552;SDS011;29153;42.696;23.218;2022-07-29T06:15:15;23.32;;;18.37;;
43552;SDS011;29153;42.696;23.218;2022-07-29T06:17:49;22.82;;;17.55;;
43552;SDS011;29153;42.696;23.218;2022-07-29T06:20:15;26.35;;;19.05;;
43552;SDS011;29153;42.696;23.218;2022-07-29T06:22:44;24.12;;;18.37;;
43552;SDS011;29153;42.696;23.218;2022-07-29T06:25:11;27.80;;;19.00;;
43552;SDS011;29153;42.696;23.218;2022-07-29T06:27:41;27.90;;;18.30;;
43552;SDS011;29153;42.696;23.218;2022-07-29T06:32:45;23.42;;;17.70;;
43552;SDS011;29153;42.696;23.218;2022-07-29T06:35:18;23.55;;;17.30;;
43552;SDS011;29153;42.696;23.218;2022-07-29T06:37:47;24.00;;;16.70;;
43552;SDS011;29153;42.696;23.218;2022-07-29T06:40:16;23.35;;;15.78;;
43552;SDS011;29153;42.696;23.218;2022-07-29T06:43:14;25.97;;;16.65;;
43552;SDS011;29153;42.696;23.218;2022-07-29T06:48:06;30.02;;;17.12;;
43552;SDS011;29153;42.696;23.218;2022-07-29T06:50:38;22.50;;;16.87;;
43552;SDS011;29153;42.696;23.218;2022-07-29T06:53:06;24.43;;;16.65;;
43552;SDS011;29153;42.696;23.218;2022-07-29T06:55:33;20.17;;;15.53;;
43552;SDS011;29153;42.696;23.218;2022-07-29T06:58:09;22.48;;;16.57;;
43552;SDS011;29153;42.696;23.218;2022-07-29T07:00:47;23.40;;;16.30;;
43552;SDS011;29153;42.696;23.218;2022-07-29T07:05:56;20.40;;;14.50;;
43552;SDS011;29153;42.696;23.218;2022-07-29T07:08:28;26.37;;;15.32;;
43552;SDS011;29153;42.696;23.218;2022-07-29T07:10:56;23.62;;;16.02;;
43552;SDS011;29153;42.696;23.218;2022-07-29T07:13:24;21.33;;;15.53;;
43552;SDS011;29153;42.696;23.218;2022-07-29T07:15:54;27.35;;;14.38;;
43552;SDS011;29153;42.696;23.218;2022-07-29T07:18:22;12.25;;;7.78;;
43552;SDS011;29153;42.696;23.218;2022-07-29T07:20:53;11.12;;;6.65;;
43552;SDS011;29153;42.696;23.218;2022-07-29T07:23:23;10.30;;;6.55;;
43552;SDS011;29153;42.696;23.218;2022-07-29T07:25:51;9.23;;;6.47;;
43552;SDS011;29153;42.696;23.218;2022-07-29T07:28:26;11.40;;;6.65;;
43552;SDS011;29153;42.696;23.218;2022-07-29T07:31:02;10.35;;;6.65;;
43552;SDS011;29153;42.696;23.218;2022-07-29T07:33:38;12.00;;;6.50;;
43552;SDS011;29153;42.696;23.218;2022-07-29T07:36:02;11.57;;;6.60;;
43552;SDS011;29153;42.696;23.218;2022-07-29T07:38:31;8.38;;;5.62;;
43552;SDS011;29153;42.696;23.218;2022-07-29T07:40:59;11.70;;;6.30;;
43552;SDS011;29153;42.696;23.218;2022-07-29T07:43:29;9.38;;;6.33;;
43552;SDS011;29153;42.696;23.218;2022-07-29T07:46:00;7.00;;;6.33;;
43552;SDS011;29153;42.696;23.218;2022-07-29T07:48:31;9.83;;;6.58;;
43552;SDS011;29153;42.696;23.218;2022-07-29T07:51:00;8.85;;;6.22;;
43552;SDS011;29153;42.696;23.218;2022-07-29T07:53:27;11.65;;;6.97;;
43552;SDS011;29153;42.696;23.218;2022-07-29T07:55:56;6.37;;;5.53;;
43552;SDS011;29153;42.696;23.218;2022-07-29T07:58:31;8.90;;;6.22;;
43552;SDS011;29153;42.696;23.218;2022-07-29T08:01:09;7.35;;;6.15;;
43552;SDS011;29153;42.696;23.218;2022-07-29T08:03:36;13.85;;;6.62;;
43552;SDS011;29153;42.696;23.218;2022-07-29T08:06:04;8.65;;;5.75;;
43552;SDS011;29153;42.696;23.218;2022-07-29T08:08:38;13.22;;;5.95;;
43552;SDS011;29153;42.696;23.218;2022-07-29T08:11:02;11.60;;;6.05;;
43552;SDS011;29153;42.696;23.218;2022-07-29T08:13:35;9.25;;;5.95;;
43552;SDS011;29153;42.696;23.218;2022-07-29T08:16:03;11.00;;;5.70;;
43552;SDS011;29153;42.696;23.218;2022-07-29T08:18:38;9.73;;;5.55;;
43552;SDS011;29153;42.696;23.218;2022-07-29T08:21:17;10.95;;;5.17;;
43552;SDS011;29153;42.696;23.218;2022-07-29T08:23:45;9.63;;;4.85;;
43552;SDS011;29153;42.696;23.218;2022-07-29T08:26:14;13.60;;;5.62;;
43552;SDS011;29153;42.696;23.218;2022-07-29T08:28:43;8.48;;;5.35;;
43552;SDS011;29153;42.696;23.218;2022-07-29T08:31:13;8.80;;;5.22;;
43552;SDS011;29153;42.696;23.218;2022-07-29T08:33:42;10.05;;;4.90;;
43552;SDS011;29153;42.696;23.218;2022-07-29T08:36:09;12.23;;;4.78;;
43552;SDS011;29153;42.696;23.218;2022-07-29T08:38:41;6.80;;;4.55;;
43552;SDS011;29153;42.696;23.218;2022-07-29T08:41:17;8.03;;;4.17;;
43552;SDS011;29153;42.696;23.218;2022-07-29T08:43:42;10.93;;;5.10;;
43552;SDS011;29153;42.696;23.218;2022-07-29T08:46:10;10.63;;;4.50;;
43552;SDS011;29153;42.696;23.218;2022-07-29T08:48:38;8.15;;;4.70;;
43552;SDS011;29153;42.696;23.218;2022-07-29T08:51:15;6.67;;;3.75;;
43552;SDS011;29153;42.696;23.218;2022-07-29T08:53:47;10.50;;;4.30;;
43552;SDS011;29153;42.696;23.218;2022-07-29T08:56:16;7.97;;;3.90;;
43552;SDS011;29153;42.696;23.218;2022-07-29T08:58:50;5.15;;;4.30;;
43552;SDS011;29153;42.696;23.218;2022-07-29T09:01:21;4.37;;;3.92;;
43552;SDS011;29153;42.696;23.218;2022-07-29T09:03:50;6.42;;;4.20;;
43552;SDS011;29153;42.696;23.218;2022-07-29T09:08:51;6.00;;;4.25;;
43552;SDS011;29153;42.696;23.218;2022-07-29T09:11:24;6.55;;;4.15;;
43552;SDS011;29153;42.696;23.218;2022-07-29T09:13:51;6.90;;;3.98;;
43552;SDS011;29153;42.696;23.218;2022-07-29T09:16:19;5.20;;;4.33;;
43552;SDS011;29153;42.696;23.218;2022-07-29T09:18:47;5.70;;;4.12;;
43552;SDS011;29153;42.696;23.218;2022-07-29T09:21:15;6.47;;;3.80;;
43552;SDS011;29153;42.696;23.218;2022-07-29T09:24:11;7.08;;;4.03;;
43552;SDS011;29153;42.696;23.218;2022-07-29T09:26:42;5.87;;;3.47;;
43552;SDS011;29153;42.696;23.218;2022-07-29T09:29:15;6.65;;;3.92;;
43552;SDS011;29153;42.696;23.218;2022-07-29T09:31:47;5.37;;;3.95;;
43552;SDS011;29153;42.696;23.218;2022-07-29T09:34:17;11.35;;;4.28;;
43552;SDS011;29153;42.696;23.218;2022-07-29T09:36:50;7.67;;;3.62;;
43552;SDS011;29153;42.696;23.218;2022-07-29T09:39:27;4.97;;;3.87;;
43552;SDS011;29153;42.696;23.218;2022-07-29T09:41:57;4.45;;;3.52;;
43552;SDS011;29153;42.696;23.218;2022-07-29T09:44:28;5.67;;;3.83;;
43552;SDS011;29153;42.696;23.218;2022-07-29T09:47:16;7.55;;;3.40;;
43552;SDS011;29153;42.696;23.218;2022-07-29T09:50:05;3.83;;;3.52;;
43552;SDS011;29153;42.696;23.218;2022-07-29T09:52:25;5.17;;;3.90;;
43552;SDS011;29153;42.696;23.218;2022-07-29T09:55:04;5.75;;;3.70;;
43552;SDS011;29153;42.696;23.218;2022-07-29T09:57:33;5.03;;;3.80;;
43552;SDS011;29153;42.696;23.218;2022-07-29T10:00:03;6.70;;;4.05;;
43552;SDS011;29153;42.696;23.218;2022-07-29T10:02:33;4.53;;;4.10;;
43552;SDS011;29153;42.696;23.218;2022-07-29T10:05:03;5.67;;;3.70;;
43552;SDS011;29153;42.696;23.218;2022-07-29T10:07:46;4.60;;;3.58;;
43552;SDS011;29153;42.696;23.218;2022-07-29T10:10:27;4.75;;;3.50;;
43552;SDS011;29153;42.696;23.218;2022-07-29T10:12:57;6.40;;;4.10;;
43552;SDS011;29153;42.696;23.218;2022-07-29T10:15:28;5.60;;;3.75;;
43552;SDS011;29153;42.696;23.218;2022-07-29T10:17:57;6.80;;;3.50;;
43552;SDS011;29153;42.696;23.218;2022-07-29T10:20:26;5.45;;;3.60;;
43552;SDS011;29153;42.696;23.218;2022-07-29T10:22:54;4.20;;;3.80;;
43552;SDS011;29153;42.696;23.218;2022-07-29T10:25:22;11.30;;;4.67;;
43552;SDS011;29153;42.696;23.218;2022-07-29T10:27:51;6.95;;;4.37;;
43552;SDS011;29153;42.696;23.218;2022-07-29T10:30:19;6.58;;;3.70;;
43552;SDS011;29153;42.696;23.218;2022-07-29T10:32:54;5.28;;;4.08;;
43552;SDS011;29153;42.696;23.218;2022-07-29T10:43:53;8.73;;;5.03;;
43552;SDS011;29153;42.696;23.218;2022-07-29T10:46:34;8.73;;;4.67;;
43552;SDS011;29153;42.696;23.218;2022-07-29T10:49:10;10.95;;;4.33;;
43552;SDS011;29153;42.696;23.218;2022-07-29T10:51:57;5.10;;;4.22;;
43552;SDS011;29153;42.696;23.218;2022-07-29T11:00:27;5.70;;;4.40;;
43552;SDS011;29153;42.696;23.218;2022-07-29T11:05:08;7.62;;;4.58;;
43552;SDS011;29153;42.696;23.218;2022-07-29T11:07:40;6.92;;;4.50;;
43552;SDS011;29153;42.696;23.218;2022-07-29T11:15:13;5.85;;;4.97;;
43552;SDS011;29153;42.696;23.218;2022-07-29T11:23:23;7.22;;;4.62;;
43552;SDS011;29153;42.696;23.218;2022-07-29T11:31:43;7.20;;;4.80;;
43552;SDS011;29153;42.696;23.218;2022-07-29T11:34:22;6.72;;;4.97;;
43552;SDS011;29153;42.696;23.218;2022-07-29T11:39:39;6.03;;;4.37;;
43552;SDS011;29153;42.696;23.218;2022-07-29T11:44:58;7.47;;;5.33;;
43552;SDS011;29153;42.696;23.218;2022-07-29T11:47:28;5.92;;;4.95;;
43552;SDS011;29153;42.696;23.218;2022-07-29T11:49:57;9.85;;;4.72;;
43552;SDS011;29153;42.696;23.218;2022-07-29T11:52:40;6.60;;;4.97;;
43552;SDS011;29153;42.696;23.218;2022-07-29T11:55:11;6.97;;;4.90;;
43552;SDS011;29153;42.696;23.218;2022-07-29T11:57:46;6.70;;;4.80;;
43552;SDS011;29153;42.696;23.218;2022-07-29T12:00:26;7.83;;;4.78;;
43552;SDS011;29153;42.696;23.218;2022-07-29T12:02:55;4.87;;;4.45;;
43552;SDS011;29153;42.696;23.218;2022-07-29T12:05:32;7.37;;;4.70;;
43552;SDS011;29153;42.696;23.218;2022-07-29T12:08:06;6.67;;;4.70;;
43552;SDS011;29153;42.696;23.218;2022-07-29T12:10:34;8.33;;;4.72;;
43552;SDS011;29153;42.696;23.218;2022-07-29T12:13:03;5.50;;;4.53;;
43552;SDS011;29153;42.696;23.218;2022-07-29T12:15:32;9.93;;;5.20;;
43552;SDS011;29153;42.696;23.218;2022-07-29T12:18:09;5.53;;;5.03;;
43552;SDS011;29153;42.696;23.218;2022-07-29T12:20:32;7.80;;;4.55;;
43552;SDS011;29153;42.696;23.218;2022-07-29T12:23:03;7.20;;;4.33;;
43552;SDS011;29153;42.696;23.218;2022-07-29T12:25:33;5.70;;;4.97;;
43552;SDS011;29153;42.696;23.218;2022-07-29T12:28:02;7.13;;;4.57;;
43552;SDS011;29153;42.696;23.218;2022-07-29T12:35:56;11.30;;;5.37;;
43552;SDS011;29153;42.696;23.218;2022-07-29T12:38:24;7.75;;;5.30;;
43552;SDS011;29153;42.696;23.218;2022-07-29T12:40:52;6.80;;;5.10;;
43552;SDS011;29153;42.696;23.218;2022-07-29T12:43:21;9.10;;;4.90;;
43552;SDS011;29153;42.696;23.218;2022-07-29T12:45:51;6.50;;;4.70;;
43552;SDS011;29153;42.696;23.218;2022-07-29T12:48:36;5.20;;;4.70;;
43552;SDS011;29153;42.696;23.218;2022-07-29T12:51:05;14.23;;;4.80;;
43552;SDS011;29153;42.696;23.218;2022-07-29T12:53:34;5.50;;;4.78;;
43552;SDS011;29153;42.696;23.218;2022-07-29T12:56:03;5.17;;;4.35;;
43552;SDS011;29153;42.696;23.218;2022-07-29T12:58:33;5.15;;;4.53;;
43552;SDS011;29153;42.696;23.218;2022-07-29T13:06:28;4.97;;;4.55;;
43552;SDS011;29153;42.696;23.218;2022-07-29T13:11:42;7.28;;;5.28;;
43552;SDS011;29153;42.696;23.218;2022-07-29T13:14:13;5.33;;;4.70;;
43552;SDS011;29153;42.696;23.218;2022-07-29T13:19:48;6.80;;;4.92;;
43552;SDS011;29153;42.696;23.218;2022-07-29T13:22:07;6.75;;;4.92;;
43552;SDS011;29153;42.696;23.218;2022-07-29T13:24:47;5.03;;;4.53;;
43552;SDS011;29153;42.696;23.218;2022-07-29T13:27:25;7.55;;;4.60;;
43552;SDS011;29153;42.696;23.218;2022-07-29T13:29:55;6.60;;;4.80;;
43552;SDS011;29153;42.696;23.218;2022-07-29T13:32:24;5.78;;;4.70;;
43552;SDS011;29153;42.696;23.218;2022-07-29T13:34:53;8.08;;;5.25;;
43552;SDS011;29153;42.696;23.218;2022-07-29T13:37:22;8.10;;;5.08;;
43552;SDS011;29153;42.696;23.218;2022-07-29T13:39:51;9.48;;;5.05;;
43552;SDS011;29153;42.696;23.218;2022-07-29T13:42:19;5.35;;;4.85;;
43552;SDS011;29153;42.696;23.218;2022-07-29T13:44:48;5.22;;;4.72;;
43552;SDS011;29153;42.696;23.218;2022-07-29T13:47:20;5.40;;;4.90;;
43552;SDS011;29153;42.696;23.218;2022-07-29T13:49:48;10.55;;;5.25;;
43552;SDS011;29153;42.696;23.218;2022-07-29T13:52:16;5.33;;;4.83;;
43552;SDS011;29153;42.696;23.218;2022-07-29T13:54:44;4.83;;;4.42;;
43552;SDS011;29153;42.696;23.218;2022-07-29T13:57:12;5.90;;;5.05;;
43552;SDS011;29153;42.696;23.218;2022-07-29T13:59:40;6.62;;;4.62;;
43552;SDS011;29153;42.696;23.218;2022-07-29T14:02:09;7.17;;;5.60;;
43552;SDS011;29153;42.696;23.218;2022-07-29T14:04:39;7.45;;;5.15;;
43552;SDS011;29153;42.696;23.218;2022-07-29T14:07:07;5.65;;;4.90;;
43552;SDS011;29153;42.696;23.218;2022-07-29T14:09:35;7.70;;;4.95;;
43552;SDS011;29153;42.696;23.218;2022-07-29T14:12:03;7.60;;;4.92;;
43552;SDS011;29153;42.696;23.218;2022-07-29T14:14:30;6.97;;;4.60;;
43552;SDS011;29153;42.696;23.218;2022-07-29T14:16:58;10.65;;;4.87;;
43552;SDS011;29153;42.696;23.218;2022-07-29T14:19:28;6.85;;;4.35;;
43552;SDS011;29153;42.696;23.218;2022-07-29T14:21:57;6.12;;;4.40;;
43552;SDS011;29153;42.696;23.218;2022-07-29T14:24:28;7.58;;;4.67;;
43552;SDS011;29153;42.696;23.218;2022-07-29T14:29:28;4.85;;;4.42;;
43552;SDS011;29153;42.696;23.218;2022-07-29T14:32:02;5.08;;;4.58;;
43552;SDS011;29153;42.696;23.218;2022-07-29T14:34:34;5.47;;;4.60;;
43552;SDS011;29153;42.696;23.218;2022-07-29T14:37:03;6.65;;;4.50;;
43552;SDS011;29153;42.696;23.218;2022-07-29T14:39:32;9.03;;;4.75;;
43552;SDS011;29153;42.696;23.218;2022-07-29T14:42:01;8.20;;;4.53;;
43552;SDS011;29153;42.696;23.218;2022-07-29T14:44:33;12.03;;;4.90;;
43552;SDS011;29153;42.696;23.218;2022-07-29T14:47:02;6.78;;;4.90;;
43552;SDS011;29153;42.696;23.218;2022-07-29T14:49:30;9.10;;;4.50;;
43552;SDS011;29153;42.696;23.218;2022-07-29T14:51:58;9.38;;;4.45;;
43552;SDS011;29153;42.696;23.218;2022-07-29T14:54:25;11.45;;;5.03;;
43552;SDS011;29153;42.696;23.218;2022-07-29T14:56:53;8.18;;;4.67;;
43552;SDS011;29153;42.696;23.218;2022-07-29T14:59:26;4.90;;;4.40;;
43552;SDS011;29153;42.696;23.218;2022-07-29T15:01:54;7.50;;;5.00;;
43552;SDS011;29153;42.696;23.218;2022-07-29T15:04:21;5.92;;;4.72;;
43552;SDS011;29153;42.696;23.218;2022-07-29T15:06:49;6.28;;;4.62;;
43552;SDS011;29153;42.696;23.218;2022-07-29T15:09:17;7.58;;;4.60;;
43552;SDS011;29153;42.696;23.218;2022-07-29T15:11:45;9.33;;;4.95;;
43552;SDS011;29153;42.696;23.218;2022-07-29T15:14:17;7.28;;;4.60;;
43552;SDS011;29153;42.696;23.218;2022-07-29T15:16:41;6.03;;;4.30;;
43552;SDS011;29153;42.696;23.218;2022-07-29T15:19:09;5.92;;;4.72;;
43552;SDS011;29153;42.696;23.218;2022-07-29T15:21:37;7.17;;;4.70;;
43552;SDS011;29153;42.696;23.218;2022-07-29T15:24:05;4.90;;;4.37;;
43552;SDS011;29153;42.696;23.218;2022-07-29T15:26:32;5.90;;;4.85;;
43552;SDS011;29153;42.696;23.218;2022-07-29T15:29:00;7.33;;;4.85;;
43552;SDS011;29153;42.696;23.218;2022-07-29T15:31:28;8.33;;;5.12;;
43552;SDS011;29153;42.696;23.218;2022-07-29T15:33:55;6.85;;;5.00;;
43552;SDS011;29153;42.696;23.218;2022-07-29T15:36:23;8.13;;;5.05;;
43552;SDS011;29153;42.696;23.218;2022-07-29T15:38:54;9.98;;;5.53;;
43552;SDS011;29153;42.696;23.218;2022-07-29T15:41:21;7.50;;;5.15;;
43552;SDS011;29153;42.696;23.218;2022-07-29T15:43:49;8.05;;;5.28;;
43552;SDS011;29153;42.696;23.218;2022-07-29T15:46:17;5.90;;;5.37;;
43552;SDS011;29153;42.696;23.218;2022-07-29T15:49:04;5.83;;;5.10;;
43552;SDS011;29153;42.696;23.218;2022-07-29T15:51:32;11.28;;;5.30;;
43552;SDS011;29153;42.696;23.218;2022-07-29T15:54:01;6.55;;;5.10;;
43552;SDS011;29153;42.696;23.218;2022-07-29T15:56:30;8.93;;;5.90;;
43552;SDS011;29153;42.696;23.218;2022-07-29T15:58:57;8.60;;;5.28;;
43552;SDS011;29153;42.696;23.218;2022-07-29T16:01:25;9.50;;;5.35;;
43552;SDS011;29153;42.696;23.218;2022-07-29T16:03:53;13.10;;;5.72;;
43552;SDS011;29153;42.696;23.218;2022-07-29T16:06:20;7.42;;;4.87;;
43552;SDS011;29153;42.696;23.218;2022-07-29T16:08:48;11.73;;;5.50;;
43552;SDS011;29153;42.696;23.218;2022-07-29T16:11:15;6.20;;;5.40;;
43552;SDS011;29153;42.696;23.218;2022-07-29T16:13:43;8.50;;;5.10;;
43552;SDS011;29153;42.696;23.218;2022-07-29T16:16:12;5.90;;;5.30;;
43552;SDS011;29153;42.696;23.218;2022-07-29T16:18:41;6.65;;;5.25;;
43552;SDS011;29153;42.696;23.218;2022-07-29T16:21:08;13.22;;;5.70;;
43552;SDS011;29153;42.696;23.218;2022-07-29T16:23:37;7.00;;;5.25;;
43552;SDS011;29153;42.696;23.218;2022-07-29T16:26:05;7.65;;;5.17;;
43552;SDS011;29153;42.696;23.218;2022-07-29T16:28:33;8.58;;;5.55;;
43552;SDS011;29153;42.696;23.218;2022-07-29T16:31:00;7.92;;;5.37;;
43552;SDS011;29153;42.696;23.218;2022-07-29T16:33:29;5.80;;;5.20;;